createdAt,value
2019-04-14T00:00:57.963Z,10.95
2019-04-14T00:02:20.476Z,11.00
2019-04-14T00:03:28.948Z,10.95
2019-04-14T00:04:35.467Z,10.95
2019-04-14T00:05:40.820Z,10.99
2019-04-14T00:06:46.177Z,10.88
2019-04-14T00:07:50.024Z,10.84
2019-04-14T00:08:54.336Z,10.93
2019-04-14T00:09:58.518Z,10.93
2019-04-14T00:11:02.213Z,10.94
2019-04-14T00:12:07.963Z,10.94
2019-04-14T00:13:11.759Z,10.86
2019-04-14T00:14:16.410Z,10.92
2019-04-14T00:15:29.213Z,10.92
2019-04-14T00:16:25.542Z,11.01
2019-04-14T00:17:29.177Z,11.03
2019-04-14T00:18:33.731Z,11.07
2019-04-14T00:19:37.575Z,11.10
2019-04-14T00:20:41.204Z,11.13
2019-04-14T00:21:45.463Z,11.11
2019-04-14T00:22:49.238Z,11.18
2019-04-14T00:23:52.843Z,11.18
2019-04-14T00:24:57.511Z,11.09
2019-04-14T00:26:24.791Z,11.17
2019-04-14T00:27:28.610Z,11.17
2019-04-14T00:28:32.187Z,11.23
2019-04-14T00:29:37.053Z,11.24
2019-04-14T00:30:40.924Z,11.31
2019-04-14T00:31:45.534Z,11.29
2019-04-14T00:32:57.446Z,11.29
2019-04-14T00:34:07.133Z,11.30
2019-04-14T00:35:12.539Z,11.28
2019-04-14T00:36:17.798Z,11.25
2019-04-14T00:37:32.093Z,11.11
2019-04-14T00:38:37.387Z,11.11
2019-04-14T00:39:55.457Z,11.13
2019-04-14T00:41:09.816Z,11.22
2019-04-14T00:42:34.177Z,11.22
2019-04-14T00:43:39.655Z,11.16
2019-04-14T00:44:47.760Z,11.16
2019-04-14T00:45:55.037Z,11.18
2019-04-14T00:47:02.935Z,11.08
2019-04-14T00:48:13.103Z,11.08
2019-04-14T00:49:13.651Z,11.05
2019-04-14T00:50:17.293Z,11.15
2019-04-14T00:51:22.003Z,11.17
2019-04-14T00:52:25.903Z,11.23
2019-04-14T00:53:29.615Z,11.12
2019-04-14T00:54:33.226Z,11.02
2019-04-14T00:55:37.962Z,11.00
2019-04-14T00:56:41.733Z,11.01
2019-04-14T00:57:46.319Z,10.95
2019-04-14T00:58:50.026Z,10.83
2019-04-14T00:59:53.667Z,10.80
2019-04-14T01:00:58.020Z,10.61
2019-04-14T01:02:01.690Z,10.69
2019-04-14T01:03:05.521Z,10.69
2019-04-14T01:04:09.812Z,10.72
2019-04-14T01:05:15.387Z,10.72
2019-04-14T01:06:19.014Z,10.69
2019-04-14T01:07:24.039Z,10.58
2019-04-14T01:08:29.159Z,10.47
2019-04-14T01:09:33.015Z,10.46
2019-04-14T01:10:36.861Z,10.43
2019-04-14T01:11:40.495Z,10.38
2019-04-14T01:12:45.233Z,10.38
2019-04-14T01:13:48.954Z,10.31
2019-04-14T01:14:53.793Z,10.20
2019-04-14T01:16:05.186Z,10.20
2019-04-14T01:17:03.066Z,10.06
2019-04-14T01:18:07.813Z,10.06
2019-04-14T01:19:11.503Z,10.02
2019-04-14T01:20:15.129Z,10.09
2019-04-14T01:21:19.677Z,10.08
2019-04-14T01:22:23.334Z,10.08
2019-04-14T01:23:28.215Z,10.10
2019-04-14T01:24:32.029Z,10.19
2019-04-14T01:25:36.791Z,10.19
2019-04-14T01:26:40.521Z,10.07
2019-04-14T01:27:45.037Z,10.02
2019-04-14T01:28:48.791Z,9.92
2019-04-14T01:29:53.723Z,9.92
2019-04-14T01:30:57.537Z,9.91
2019-04-14T01:32:02.319Z,9.98
2019-04-14T01:33:06.022Z,9.90
2019-04-14T01:34:10.748Z,9.90
2019-04-14T01:35:14.466Z,9.97
2019-04-14T01:36:19.148Z,10.02
2019-04-14T01:37:22.826Z,10.06
2019-04-14T01:38:27.594Z,10.12
2019-04-14T01:39:31.269Z,10.12
2019-04-14T01:40:35.935Z,9.90
2019-04-14T01:41:39.642Z,9.90
2019-04-14T01:42:44.221Z,9.84
2019-04-14T01:43:47.951Z,9.85
2019-04-14T01:44:52.531Z,9.79
2019-04-14T01:46:05.098Z,9.82
2019-04-14T01:47:03.012Z,9.82
2019-04-14T01:48:06.918Z,9.83
2019-04-14T01:49:11.518Z,9.83
2019-04-14T01:50:16.902Z,9.76
2019-04-14T01:51:31.228Z,9.67
2019-04-14T01:52:43.657Z,9.49
2019-04-14T01:54:01.797Z,9.49
2019-04-14T01:55:25.133Z,9.60
2019-04-14T01:56:30.420Z,9.57
2019-04-14T01:57:35.695Z,9.57
2019-04-14T01:58:46.935Z,9.63
2019-04-14T01:59:50.561Z,9.65
2019-04-14T02:00:59.629Z,9.56
2019-04-14T02:02:03.649Z,9.56
2019-04-14T02:03:08.374Z,9.59
2019-04-14T02:04:12.059Z,9.55
2019-04-14T02:05:16.792Z,9.55
2019-04-14T02:06:20.640Z,9.61
2019-04-14T02:07:25.587Z,9.53
2019-04-14T02:08:29.274Z,9.53
2019-04-14T02:09:33.589Z,9.50
2019-04-14T02:10:37.231Z,9.50
2019-04-14T02:11:40.874Z,9.54
2019-04-14T02:12:45.243Z,9.54
2019-04-14T02:13:48.858Z,9.49
2019-04-14T02:14:52.437Z,9.51
2019-04-14T02:15:57.304Z,9.51
2019-04-14T02:17:03.154Z,9.52
2019-04-14T02:18:07.742Z,9.42
2019-04-14T02:19:11.500Z,9.47
2019-04-14T02:20:16.331Z,9.49
2019-04-14T02:21:20.112Z,9.45
2019-04-14T02:22:24.552Z,9.51
2019-04-14T02:23:28.283Z,9.61
2019-04-14T02:24:33.030Z,9.72
2019-04-14T02:25:36.698Z,9.68
2019-04-14T02:26:41.511Z,9.68
2019-04-14T02:27:45.360Z,9.71
2019-04-14T02:28:50.336Z,9.71
2019-04-14T02:29:54.233Z,9.82
2019-04-14T02:31:10.453Z,9.87
2019-04-14T02:33:40.330Z,9.95
2019-04-14T02:34:40.111Z,9.96
2019-04-14T02:35:44.895Z,10.05
2019-04-14T02:38:01.999Z,10.09
2019-04-14T02:40:08.933Z,10.09
2019-04-14T02:43:29.364Z,10.11
2019-04-14T02:44:32.495Z,10.08
2019-04-14T02:45:44.652Z,10.05
2019-04-14T02:46:51.214Z,10.05
2019-04-14T02:49:56.131Z,10.12
2019-04-14T02:51:10.855Z,10.06
2019-04-14T02:52:09.983Z,10.01
2019-04-14T02:53:19.071Z,10.01
2019-04-14T02:55:19.074Z,9.71
2019-04-14T02:57:49.476Z,9.70
2019-04-14T02:59:43.199Z,9.74
2019-04-14T03:01:07.150Z,9.73
2019-04-14T03:02:03.448Z,9.73
2019-04-14T03:03:06.278Z,9.73
2019-04-14T03:04:09.328Z,9.69
2019-04-14T03:05:09.495Z,9.61
2019-04-14T03:06:12.980Z,9.69
2019-04-14T03:07:28.217Z,9.68
2019-04-14T03:08:34.612Z,9.70
2019-04-14T03:12:46.560Z,9.62
2019-04-14T03:13:58.471Z,9.62
2019-04-14T03:15:01.503Z,9.57
2019-04-14T03:16:15.550Z,9.47
2019-04-14T03:17:43.028Z,9.33
2019-04-14T03:20:59.051Z,9.33
2019-04-14T03:22:26.144Z,9.24
2019-04-14T03:23:34.799Z,9.13
2019-04-14T03:24:32.779Z,9.13
2019-04-14T03:25:44.204Z,9.08
2019-04-14T03:27:01.301Z,9.10
2019-04-14T03:27:58.925Z,9.10
2019-04-14T03:29:28.851Z,9.10
2019-04-14T03:33:13.544Z,9.06
2019-04-14T03:35:03.562Z,9.00
2019-04-14T03:36:16.875Z,8.96
2019-04-14T03:38:18.469Z,8.91
2019-04-14T03:39:33.428Z,8.91
2019-04-14T03:40:19.767Z,8.92
2019-04-14T03:42:37.832Z,8.91
2019-04-14T03:43:41.352Z,8.92
2019-04-14T03:44:41.365Z,8.92
2019-04-14T03:45:50.828Z,8.84
2019-04-14T03:46:56.669Z,8.81
2019-04-14T03:48:31.735Z,8.80
2019-04-14T03:49:31.360Z,8.80
2019-04-14T03:50:16.531Z,8.81
2019-04-14T03:52:31.665Z,8.82
2019-04-14T03:54:20.488Z,8.78
2019-04-14T03:55:20.521Z,8.77
2019-04-14T03:56:33.507Z,8.74
2019-04-14T03:57:37.026Z,8.75
2019-04-14T03:58:40.665Z,8.77
2019-04-14T03:59:45.565Z,8.79
2019-04-14T04:00:49.450Z,8.82
2019-04-14T04:01:54.477Z,8.94
2019-04-14T04:02:58.222Z,9.15
2019-04-14T04:04:03.146Z,9.16
2019-04-14T04:05:07.005Z,9.16
2019-04-14T04:06:11.725Z,9.09
2019-04-14T04:07:15.489Z,9.02
2019-04-14T04:08:20.130Z,8.89
2019-04-14T04:09:25.762Z,8.78
2019-04-14T04:10:29.399Z,8.69
2019-04-14T04:11:34.189Z,8.63
2019-04-14T04:12:38.168Z,8.63
2019-04-14T04:13:41.802Z,8.68
2019-04-14T04:14:46.379Z,8.92
2019-04-14T04:15:51.889Z,9.06
2019-04-14T04:17:03.647Z,9.06
2019-04-14T04:18:24.313Z,9.25
2019-04-14T04:19:29.602Z,9.25
2019-04-14T04:20:52.681Z,9.18
2019-04-14T04:22:15.039Z,8.95
2019-04-14T04:23:20.554Z,8.95
2019-04-14T04:24:29.091Z,9.02
2019-04-14T04:25:36.220Z,8.95
2019-04-14T04:26:41.473Z,8.73
2019-04-14T04:28:02.009Z,8.61
2019-04-14T04:29:07.293Z,8.49
2019-04-14T04:30:20.841Z,8.57
2019-04-14T04:31:35.096Z,8.62
2019-04-14T04:32:46.920Z,8.62
2019-04-14T04:33:54.881Z,8.55
2019-04-14T04:35:04.208Z,8.45
2019-04-14T04:36:12.310Z,8.38
2019-04-14T04:37:21.412Z,8.18
2019-04-14T04:38:33.437Z,8.19
2019-04-14T04:39:45.611Z,8.27
2019-04-14T04:40:49.363Z,8.31
2019-04-14T04:41:53.793Z,8.48
2019-04-14T04:42:58.989Z,8.52
2019-04-14T04:44:02.942Z,8.54
2019-04-14T04:45:08.104Z,8.62
2019-04-14T04:46:11.770Z,8.64
2019-04-14T04:47:16.552Z,8.60
2019-04-14T04:48:20.330Z,8.69
2019-04-14T04:49:27.688Z,8.81
2019-04-14T04:50:30.604Z,8.63
2019-04-14T04:51:34.287Z,8.52
2019-04-14T04:52:38.609Z,8.51
2019-04-14T04:53:46.221Z,8.41
2019-04-14T04:54:53.829Z,8.40
2019-04-14T04:56:01.483Z,8.26
2019-04-14T04:57:06.787Z,8.22
2019-04-14T04:58:12.405Z,8.16
2019-04-14T04:59:17.607Z,8.19
2019-04-14T05:00:22.208Z,8.20
2019-04-14T05:01:26.002Z,8.14
2019-04-14T05:02:30.863Z,8.13
2019-04-14T05:03:35.295Z,8.18
2019-04-14T05:04:39.966Z,8.14
2019-04-14T05:06:09.094Z,8.10
2019-04-14T05:07:14.489Z,8.16
2019-04-14T05:08:19.560Z,8.04
2019-04-14T05:09:33.871Z,8.10
2019-04-14T05:10:43.634Z,8.14
2019-04-14T05:11:52.565Z,8.17
2019-04-14T05:12:56.537Z,8.21
2019-04-14T05:14:04.402Z,8.13
2019-04-14T05:15:29.114Z,8.05
2019-04-14T05:16:32.791Z,8.04
2019-04-14T05:17:58.270Z,8.00
2019-04-14T05:19:13.987Z,8.01
2019-04-14T05:20:07.476Z,8.10
2019-04-14T05:21:11.071Z,8.17
2019-04-14T05:22:17.711Z,8.25
2019-04-14T05:23:21.318Z,8.43
2019-04-14T05:24:25.146Z,8.31
2019-04-14T05:25:29.703Z,8.23
2019-04-14T05:26:37.410Z,8.14
2019-04-14T05:27:40.959Z,8.07
2019-04-14T05:28:44.569Z,7.95
2019-04-14T05:29:49.305Z,7.86
2019-04-14T05:30:53.118Z,7.75
2019-04-14T05:31:57.661Z,7.66
2019-04-14T05:33:01.381Z,7.69
2019-04-14T05:34:05.080Z,7.66
2019-04-14T05:35:09.636Z,7.65
2019-04-14T05:36:15.010Z,7.75
2019-04-14T05:37:18.715Z,7.81
2019-04-14T05:38:23.534Z,7.83
2019-04-14T05:39:28.619Z,7.87
2019-04-14T05:40:34.543Z,7.83
2019-04-14T05:41:38.236Z,7.98
2019-04-14T05:42:45.088Z,8.13
2019-04-14T05:43:55.143Z,8.23
2019-04-14T05:44:54.278Z,8.32
2019-04-14T05:46:03.399Z,8.30
2019-04-14T05:47:08.958Z,8.31
2019-04-14T05:48:13.850Z,8.23
2019-04-14T05:49:29.560Z,8.21
2019-04-14T05:50:23.406Z,8.21
2019-04-14T05:51:28.323Z,8.22
2019-04-14T05:52:32.100Z,8.16
2019-04-14T05:53:35.780Z,8.23
2019-04-14T05:54:40.438Z,8.20
2019-04-14T05:55:44.233Z,8.24
2019-04-14T05:56:47.896Z,8.23
2019-04-14T05:57:52.511Z,8.18
2019-04-14T05:58:56.276Z,8.27
2019-04-14T05:59:59.910Z,8.47
2019-04-14T06:01:04.745Z,8.61
2019-04-14T06:02:09.355Z,8.78
2019-04-14T06:03:13.056Z,8.83
2019-04-14T06:04:17.811Z,8.83
2019-04-14T06:05:21.668Z,8.83
2019-04-14T06:06:25.361Z,9.04
2019-04-14T06:07:28.949Z,9.04
2019-04-14T06:08:32.998Z,9.05
2019-04-14T06:09:36.619Z,8.95
2019-04-14T06:10:40.344Z,9.02
2019-04-14T06:11:44.361Z,9.10
2019-04-14T06:12:48.240Z,8.98
2019-04-14T06:13:51.866Z,8.89
2019-04-14T06:14:55.487Z,8.84
2019-04-14T06:15:59.120Z,8.77
2019-04-14T06:17:02.751Z,8.94
2019-04-14T06:18:06.408Z,9.14
2019-04-14T06:19:10.093Z,9.33
2019-04-14T06:20:13.892Z,9.43
2019-04-14T06:21:17.908Z,9.39
2019-04-14T06:22:21.531Z,9.39
2019-04-14T06:23:25.274Z,9.56
2019-04-14T06:24:29.069Z,9.60
2019-04-14T06:25:32.811Z,9.67
2019-04-14T06:26:36.433Z,9.69
2019-04-14T06:27:40.454Z,9.58
2019-04-14T06:28:44.149Z,9.59
2019-04-14T06:29:49.436Z,9.59
2019-04-14T06:30:54.719Z,9.68
2019-04-14T06:32:00.006Z,9.66
2019-04-14T06:33:05.608Z,9.83
2019-04-14T06:34:20.227Z,10.11
2019-04-14T06:35:31.263Z,10.35
2019-04-14T06:36:48.133Z,10.49
2019-04-14T06:37:56.344Z,10.49
2019-04-14T06:39:01.788Z,10.69
2019-04-14T06:40:09.324Z,10.69
2019-04-14T06:41:14.779Z,10.51
2019-04-14T06:42:18.407Z,10.53
2019-04-14T06:43:22.141Z,10.53
2019-04-14T06:44:26.073Z,10.67
2019-04-14T06:45:29.641Z,10.83
2019-04-14T06:46:33.343Z,10.83
2019-04-14T06:47:37.008Z,10.83
2019-04-14T06:48:40.647Z,10.92
2019-04-14T06:49:49.141Z,10.92
2019-04-14T06:50:49.720Z,11.21
2019-04-14T06:51:53.570Z,11.47
2019-04-14T06:52:58.672Z,11.47
2019-04-14T06:54:02.314Z,11.67
2019-04-14T06:55:06.853Z,11.91
2019-04-14T06:56:10.552Z,11.91
2019-04-14T06:57:14.564Z,11.95
2019-04-14T06:58:18.303Z,11.95
2019-04-14T06:59:22.038Z,12.04
2019-04-14T07:00:26.181Z,12.23
2019-04-14T07:01:29.807Z,12.57
2019-04-14T07:02:33.904Z,12.68
2019-04-14T07:03:37.558Z,12.95
2019-04-14T07:04:41.138Z,13.24
2019-04-14T07:05:45.121Z,13.55
2019-04-14T07:06:51.311Z,13.78
2019-04-14T07:07:57.208Z,13.98
2019-04-14T07:08:59.896Z,14.17
2019-04-14T07:10:03.944Z,14.27
2019-04-14T07:11:07.501Z,14.38
2019-04-14T07:12:11.284Z,14.58
2019-04-14T07:13:15.019Z,14.59
2019-04-14T07:14:18.641Z,14.59
2019-04-14T07:15:22.288Z,14.70
2019-04-14T07:16:26.046Z,14.85
2019-04-14T07:17:30.114Z,14.82
2019-04-14T07:18:33.802Z,15.05
2019-04-14T07:19:37.529Z,15.35
2019-04-14T07:20:41.222Z,15.54
2019-04-14T07:21:44.828Z,15.68
2019-04-14T07:22:48.511Z,15.80
2019-04-14T07:23:52.103Z,15.94
2019-04-14T07:24:55.790Z,15.75
2019-04-14T07:25:59.418Z,15.83
2019-04-14T07:27:03.051Z,16.07
2019-04-14T07:28:06.710Z,16.23
2019-04-14T07:29:10.371Z,16.24
2019-04-14T07:30:30.822Z,16.28
2019-04-14T07:31:42.129Z,16.41
2019-04-14T07:32:47.450Z,16.72
2019-04-14T07:34:04.632Z,17.00
2019-04-14T07:35:12.773Z,17.14
2019-04-14T07:36:36.649Z,17.36
2019-04-14T07:37:44.681Z,17.51
2019-04-14T07:38:49.886Z,17.71
2019-04-14T07:39:55.086Z,17.84
2019-04-14T07:41:05.936Z,18.02
2019-04-14T07:42:11.232Z,18.09
2019-04-14T07:43:31.494Z,18.19
2019-04-14T07:44:36.780Z,18.49
2019-04-14T07:45:44.524Z,18.68
2019-04-14T07:46:52.262Z,18.89
2019-04-14T07:47:57.613Z,18.75
2019-04-14T07:49:08.937Z,18.72
2019-04-14T07:50:32.766Z,18.89
2019-04-14T07:51:54.375Z,18.59
2019-04-14T07:53:02.206Z,18.82
2019-04-14T07:54:07.538Z,19.10
2019-04-14T07:55:31.485Z,19.46
2019-04-14T07:56:39.394Z,19.60
2019-04-14T07:57:47.098Z,19.69
2019-04-14T07:59:01.240Z,19.78
2019-04-14T08:00:21.026Z,19.91
2019-04-14T08:01:26.301Z,20.28
2019-04-14T08:02:43.735Z,20.57
2019-04-14T08:03:49.013Z,20.62
2019-04-14T08:04:54.310Z,20.54
2019-04-14T08:05:58.120Z,20.79
2019-04-14T08:07:02.219Z,21.21
2019-04-14T08:08:05.871Z,21.41
2019-04-14T08:09:09.986Z,21.58
2019-04-14T08:10:13.767Z,21.50
2019-04-14T08:11:17.835Z,21.52
2019-04-14T08:12:21.461Z,21.14
2019-04-14T08:13:25.020Z,20.80
2019-04-14T08:14:28.696Z,20.99
2019-04-14T08:15:32.335Z,21.08
2019-04-14T08:16:36.074Z,20.75
2019-04-14T08:17:43.725Z,20.46
2019-04-14T08:18:47.482Z,20.30
2019-04-14T08:19:51.036Z,20.53
2019-04-14T08:20:54.676Z,20.68
2019-04-14T08:21:58.291Z,21.03
2019-04-14T08:23:01.940Z,21.55
2019-04-14T08:24:05.571Z,21.61
2019-04-14T08:25:09.541Z,22.22
2019-04-14T08:26:13.240Z,22.65
2019-04-14T08:27:17.256Z,22.91
2019-04-14T08:28:21.441Z,23.01
2019-04-14T08:29:25.191Z,22.68
2019-04-14T08:30:28.956Z,22.41
2019-04-14T08:31:32.601Z,22.64
2019-04-14T08:32:36.323Z,22.87
2019-04-14T08:33:39.974Z,23.04
2019-04-14T08:34:43.595Z,22.61
2019-04-14T08:35:47.264Z,22.31
2019-04-14T08:36:52.047Z,22.04
2019-04-14T08:37:57.117Z,22.19
2019-04-14T08:39:00.835Z,22.47
2019-04-14T08:40:09.455Z,22.56
2019-04-14T08:41:13.206Z,22.49
2019-04-14T08:42:18.577Z,23.02
2019-04-14T08:43:26.622Z,23.20
2019-04-14T08:44:39.463Z,23.21
2019-04-14T08:45:56.234Z,23.48
2019-04-14T08:47:02.592Z,24.04
2019-04-14T08:48:24.447Z,24.31
2019-04-14T08:49:29.716Z,24.63
2019-04-14T08:50:50.999Z,24.43
2019-04-14T08:52:06.925Z,24.03
2019-04-14T08:53:30.592Z,23.39
2019-04-14T08:54:41.784Z,22.50
2019-04-14T08:55:56.060Z,21.25
2019-04-14T08:57:01.366Z,21.23
2019-04-14T08:58:22.053Z,20.92
2019-04-14T08:59:27.320Z,20.75
2019-04-14T09:00:35.702Z,20.52
2019-04-14T09:01:57.508Z,20.33
2019-04-14T09:03:02.779Z,19.97
2019-04-14T09:04:08.085Z,19.76
2019-04-14T09:05:25.450Z,19.88
2019-04-14T09:06:36.814Z,20.17
2019-04-14T09:07:51.122Z,20.25
2019-04-14T09:09:12.600Z,20.00
2019-04-14T09:10:20.791Z,19.81
2019-04-14T09:11:26.081Z,19.73
2019-04-14T09:12:31.389Z,20.46
2019-04-14T09:13:35.038Z,21.17
2019-04-14T09:14:38.669Z,21.92
2019-04-14T09:15:42.323Z,22.65
2019-04-14T09:16:45.895Z,23.15
2019-04-14T09:17:49.576Z,23.75
2019-04-14T09:18:53.903Z,24.24
2019-04-14T09:19:57.647Z,24.55
2019-04-14T09:21:01.292Z,25.27
2019-04-14T09:22:04.924Z,25.46
2019-04-14T09:23:08.591Z,25.68
2019-04-14T09:24:12.247Z,26.10
2019-04-14T09:25:15.900Z,26.48
2019-04-14T09:26:19.538Z,26.72
2019-04-14T09:27:23.180Z,26.61
2019-04-14T09:28:26.868Z,26.87
2019-04-14T09:29:30.588Z,27.18
2019-04-14T09:30:34.266Z,27.57
2019-04-14T09:31:37.911Z,27.65
2019-04-14T09:32:41.570Z,27.94
2019-04-14T09:33:45.262Z,27.83
2019-04-14T09:34:49.373Z,27.74
2019-04-14T09:35:53.053Z,27.33
2019-04-14T09:36:56.702Z,26.33
2019-04-14T09:38:00.340Z,26.47
2019-04-14T09:39:05.659Z,26.50
2019-04-14T09:40:10.412Z,27.11
2019-04-14T09:41:14.035Z,27.51
2019-04-14T09:42:17.688Z,27.76
2019-04-14T09:43:22.776Z,28.19
2019-04-14T09:44:26.360Z,28.26
2019-04-14T09:45:29.978Z,27.67
2019-04-14T09:46:33.716Z,27.14
2019-04-14T09:47:37.750Z,27.82
2019-04-14T09:48:42.956Z,27.69
2019-04-14T09:49:46.816Z,27.80
2019-04-14T09:50:50.541Z,28.31
2019-04-14T09:51:54.208Z,28.72
2019-04-14T09:52:57.859Z,29.16
2019-04-14T09:54:01.493Z,29.40
2019-04-14T09:55:06.527Z,29.35
2019-04-14T09:56:10.278Z,29.46
2019-04-14T09:57:13.978Z,29.45
2019-04-14T09:58:17.623Z,29.59
2019-04-14T09:59:21.273Z,29.61
2019-04-14T10:00:24.988Z,29.65
2019-04-14T10:01:28.703Z,28.99
2019-04-14T10:02:32.415Z,28.15
2019-04-14T10:03:36.132Z,27.65
2019-04-14T10:04:39.759Z,27.78
2019-04-14T10:05:43.651Z,27.82
2019-04-14T10:06:47.281Z,27.98
2019-04-14T10:07:51.086Z,28.33
2019-04-14T10:08:55.173Z,27.92
2019-04-14T10:09:58.900Z,27.77
2019-04-14T10:11:02.870Z,27.86
2019-04-14T10:12:06.874Z,27.99
2019-04-14T10:13:10.574Z,28.08
2019-04-14T10:14:14.235Z,28.23
2019-04-14T10:15:18.262Z,28.22
2019-04-14T10:16:21.881Z,28.33
2019-04-14T10:17:25.514Z,28.60
2019-04-14T10:18:29.547Z,29.10
2019-04-14T10:19:33.198Z,29.33
2019-04-14T10:20:36.828Z,29.48
2019-04-14T10:21:40.718Z,29.83
2019-04-14T10:22:44.436Z,29.92
2019-04-14T10:23:47.992Z,29.86
2019-04-14T10:24:51.572Z,30.38
2019-04-14T10:25:55.233Z,30.85
2019-04-14T10:26:59.017Z,31.46
2019-04-14T10:28:02.666Z,31.67
2019-04-14T10:29:06.320Z,32.05
2019-04-14T10:30:10.415Z,32.33
2019-04-14T10:31:14.075Z,32.59
2019-04-14T10:32:17.780Z,31.94
2019-04-14T10:33:21.412Z,30.61
2019-04-14T10:34:25.072Z,30.31
2019-04-14T10:35:28.697Z,30.41
2019-04-14T10:36:32.348Z,31.13
2019-04-14T10:37:36.090Z,29.93
2019-04-14T10:38:41.207Z,29.60
2019-04-14T10:39:44.859Z,28.90
2019-04-14T10:40:48.517Z,28.43
2019-04-14T10:41:52.157Z,28.10
2019-04-14T10:42:55.841Z,27.95
2019-04-14T10:43:59.477Z,27.70
2019-04-14T10:45:03.137Z,27.19
2019-04-14T10:46:07.116Z,27.21
2019-04-14T10:47:10.760Z,27.48
2019-04-14T10:48:14.380Z,27.43
2019-04-14T10:49:18.032Z,27.07
2019-04-14T10:50:30.750Z,26.82
2019-04-14T10:51:30.177Z,26.31
2019-04-14T10:52:32.455Z,25.60
2019-04-14T10:53:36.088Z,25.32
2019-04-14T10:54:39.814Z,24.81
2019-04-14T10:55:43.454Z,24.46
2019-04-14T10:56:47.050Z,24.88
2019-04-14T10:57:50.718Z,25.78
2019-04-14T10:58:54.363Z,26.81
2019-04-14T10:59:58.081Z,28.09
2019-04-14T11:01:01.653Z,28.88
2019-04-14T11:02:05.412Z,29.53
2019-04-14T11:03:09.087Z,30.63
2019-04-14T11:04:12.733Z,31.60
2019-04-14T11:05:16.463Z,32.20
2019-04-14T11:06:21.742Z,32.33
2019-04-14T11:07:27.026Z,32.80
2019-04-14T11:08:30.642Z,32.65
2019-04-14T11:09:34.296Z,32.22
2019-04-14T11:10:38.051Z,32.12
2019-04-14T11:11:41.689Z,32.70
2019-04-14T11:12:45.351Z,33.20
2019-04-14T11:13:49.068Z,33.57
2019-04-14T11:14:52.740Z,34.12
2019-04-14T11:15:56.494Z,34.81
2019-04-14T11:17:01.211Z,35.03
2019-04-14T11:18:04.920Z,35.01
2019-04-14T11:19:08.582Z,34.98
2019-04-14T11:20:12.935Z,34.58
2019-04-14T11:21:16.627Z,33.70
2019-04-14T11:22:20.365Z,32.68
2019-04-14T11:23:24.024Z,32.41
2019-04-14T11:24:27.686Z,32.28
2019-04-14T11:25:31.315Z,32.47
2019-04-14T11:26:34.989Z,32.80
2019-04-14T11:27:39.071Z,32.71
2019-04-14T11:28:42.702Z,32.11
2019-04-14T11:29:46.343Z,30.45
2019-04-14T11:30:51.636Z,29.31
2019-04-14T11:31:58.436Z,28.75
2019-04-14T11:33:09.350Z,28.55
2019-04-14T11:34:14.634Z,27.82
2019-04-14T11:35:25.926Z,27.52
2019-04-14T11:36:47.526Z,26.92
2019-04-14T11:38:09.106Z,26.36
2019-04-14T11:39:14.415Z,25.62
2019-04-14T11:40:19.699Z,25.19
2019-04-14T11:41:24.615Z,25.27
2019-04-14T11:42:28.299Z,25.04
2019-04-14T11:43:31.902Z,25.24
2019-04-14T11:44:35.527Z,25.07
2019-04-14T11:45:39.281Z,24.76
2019-04-14T11:46:43.035Z,25.35
2019-04-14T11:47:46.774Z,26.03
2019-04-14T11:48:51.308Z,26.82
2019-04-14T11:49:54.929Z,27.26
2019-04-14T11:50:58.578Z,27.66
2019-04-14T11:52:02.207Z,27.97
2019-04-14T11:53:05.892Z,28.18
2019-04-14T11:54:09.565Z,28.45
2019-04-14T11:55:16.099Z,29.44
2019-04-14T11:56:19.744Z,29.87
2019-04-14T11:57:23.385Z,30.32
2019-04-14T11:58:29.137Z,30.72
2019-04-14T11:59:34.067Z,30.30
2019-04-14T12:00:42.180Z,30.40
2019-04-14T12:02:05.729Z,30.70
2019-04-14T12:03:28.889Z,30.96
2019-04-14T12:04:36.963Z,30.62
2019-04-14T12:05:51.487Z,30.93
2019-04-14T12:07:05.867Z,31.38
2019-04-14T12:08:13.979Z,31.80
2019-04-14T12:09:19.262Z,30.84
2019-04-14T12:10:24.242Z,30.80
2019-04-14T12:11:27.893Z,30.98
2019-04-14T12:12:31.628Z,30.84
2019-04-14T12:13:35.324Z,31.28
2019-04-14T12:14:38.973Z,31.39
2019-04-14T12:15:42.658Z,30.87
2019-04-14T12:16:46.388Z,31.04
2019-04-14T12:17:50.123Z,31.26
2019-04-14T12:18:53.778Z,31.57
2019-04-14T12:19:57.458Z,32.08
2019-04-14T12:21:00.978Z,32.10
2019-04-14T12:22:08.552Z,31.93
2019-04-14T12:23:11.378Z,31.83
2019-04-14T12:24:15.063Z,31.79
2019-04-14T12:25:18.821Z,31.94
2019-04-14T12:26:22.514Z,32.00
2019-04-14T12:27:26.309Z,31.89
2019-04-14T12:28:31.821Z,31.98
2019-04-14T12:29:36.776Z,32.11
2019-04-14T12:30:40.654Z,32.34
2019-04-14T12:31:46.515Z,31.98
2019-04-14T12:32:50.438Z,31.62
2019-04-14T12:33:54.148Z,31.50
2019-04-14T12:34:58.195Z,31.06
2019-04-14T12:36:01.892Z,30.26
2019-04-14T12:37:08.102Z,29.92
2019-04-14T12:38:11.726Z,29.57
2019-04-14T12:39:24.152Z,28.43
2019-04-14T12:40:27.786Z,27.83
2019-04-14T12:41:35.435Z,26.96
2019-04-14T12:42:50.050Z,26.70
2019-04-14T12:43:58.358Z,26.21
2019-04-14T12:45:03.634Z,25.51
2019-04-14T12:46:18.041Z,25.39
2019-04-14T12:47:29.159Z,25.66
2019-04-14T12:48:43.343Z,26.29
2019-04-14T12:49:51.327Z,26.93
2019-04-14T12:51:12.853Z,27.56
2019-04-14T12:52:22.125Z,27.79
2019-04-14T12:53:25.810Z,27.97
2019-04-14T12:54:29.466Z,27.90
2019-04-14T12:55:33.167Z,28.12
2019-04-14T12:56:37.771Z,28.37
2019-04-14T12:57:49.575Z,28.65
2019-04-14T12:59:00.728Z,29.02
2019-04-14T13:00:07.420Z,29.44
2019-04-14T13:01:12.696Z,29.50
2019-04-14T13:02:17.982Z,29.58
2019-04-14T13:03:22.089Z,29.79
2019-04-14T13:04:25.764Z,29.66
2019-04-14T13:05:29.505Z,29.76
2019-04-14T13:06:33.127Z,29.61
2019-04-14T13:07:37.029Z,29.50
2019-04-14T13:08:40.647Z,29.76
2019-04-14T13:09:44.321Z,29.72
2019-04-14T13:10:51.162Z,29.72
2019-04-14T13:11:54.801Z,29.41
2019-04-14T13:12:58.447Z,29.12
2019-04-14T13:14:02.106Z,29.33
2019-04-14T13:15:07.464Z,29.71
2019-04-14T13:16:11.140Z,30.16
2019-04-14T13:17:14.798Z,29.75
2019-04-14T13:18:18.412Z,29.49
2019-04-14T13:19:22.048Z,29.12
2019-04-14T13:20:25.701Z,29.32
2019-04-14T13:21:29.792Z,29.32
2019-04-14T13:22:34.439Z,29.37
2019-04-14T13:23:38.277Z,29.63
2019-04-14T13:24:41.907Z,29.73
2019-04-14T13:25:45.562Z,29.82
2019-04-14T13:26:49.318Z,29.88
2019-04-14T13:27:52.976Z,29.70
2019-04-14T13:28:56.636Z,29.16
2019-04-14T13:30:00.273Z,28.39
2019-04-14T13:31:04.001Z,28.21
2019-04-14T13:32:07.680Z,28.25
2019-04-14T13:33:11.224Z,28.01
2019-04-14T13:34:14.859Z,28.02
2019-04-14T13:35:18.506Z,27.98
2019-04-14T13:36:22.167Z,27.38
2019-04-14T13:37:26.224Z,27.45
2019-04-14T13:38:30.185Z,27.72
2019-04-14T13:39:33.887Z,27.83
2019-04-14T13:40:37.537Z,27.46
2019-04-14T13:41:41.216Z,27.66
2019-04-14T13:42:44.921Z,28.02
2019-04-14T13:43:48.552Z,28.39
2019-04-14T13:44:52.208Z,28.65
2019-04-14T13:45:55.932Z,28.92
2019-04-14T13:46:59.606Z,28.69
2019-04-14T13:48:03.236Z,28.40
2019-04-14T13:49:06.868Z,28.03
2019-04-14T13:50:11.121Z,27.69
2019-04-14T13:51:14.825Z,26.69
2019-04-14T13:52:18.464Z,25.89
2019-04-14T13:53:22.027Z,25.91
2019-04-14T13:54:25.677Z,25.85
2019-04-14T13:55:29.342Z,25.65
2019-04-14T13:56:32.996Z,25.42
2019-04-14T13:57:36.874Z,25.60
2019-04-14T13:58:40.931Z,25.86
2019-04-14T13:59:44.558Z,26.02
2019-04-14T14:00:48.204Z,26.36
2019-04-14T14:01:51.832Z,26.74
2019-04-14T14:02:55.528Z,26.81
2019-04-14T14:03:59.085Z,26.63
2019-04-14T14:05:02.772Z,26.42
2019-04-14T14:06:06.418Z,26.19
2019-04-14T14:07:10.057Z,25.79
2019-04-14T14:08:13.744Z,25.89
2019-04-14T14:09:17.394Z,26.08
2019-04-14T14:10:24.046Z,25.78
2019-04-14T14:11:38.527Z,25.69
2019-04-14T14:12:43.769Z,25.63
2019-04-14T14:13:49.081Z,25.22
2019-04-14T14:14:54.368Z,25.13
2019-04-14T14:16:03.288Z,25.11
2019-04-14T14:17:08.566Z,25.13
2019-04-14T14:18:29.187Z,25.05
2019-04-14T14:19:36.868Z,25.20
2019-04-14T14:20:47.956Z,25.13
2019-04-14T14:21:59.058Z,24.84
2019-04-14T14:23:08.840Z,25.01
2019-04-14T14:24:30.392Z,25.04
2019-04-14T14:25:45.000Z,24.90
2019-04-14T14:26:53.391Z,24.63
2019-04-14T14:27:58.687Z,24.74
2019-04-14T14:29:02.590Z,24.58
2019-04-14T14:30:08.348Z,24.41
2019-04-14T14:31:12.031Z,24.32
2019-04-14T14:32:23.255Z,24.10
2019-04-14T14:33:28.811Z,23.84
2019-04-14T14:34:33.911Z,23.64
2019-04-14T14:35:37.557Z,23.62
2019-04-14T14:36:42.893Z,23.66
2019-04-14T14:37:47.693Z,23.64
2019-04-14T14:38:51.342Z,23.54
2019-04-14T14:39:55.039Z,23.48
2019-04-14T14:41:00.377Z,23.39
2019-04-14T14:42:04.075Z,23.21